Time;durP1;ratioP1;P1;durP2;ratioP2;P2;SDS_P1;SDS_P2;PMS_P1;PMS_P2;Temp;Humidity;BMP_temperature;BMP_pressure;BME280_temperature;BME280_humidity;BME280_pressure;Samples;Min_cycle;Max_cycle;Signal;HPM_P1;HPM_P2
2023/06/28 00:02:22;;;;;;;4.23;3.93;;;20.20;95.00;;;;;;5052177;28;20435;-60
2023/06/28 00:04:48;;;;;;;4.40;3.87;;;20.20;95.20;;;;;;5046371;28;20416;-60
2023/06/28 00:07:15;;;;;;;3.93;3.60;;;20.20;95.50;;;;;;5045698;28;20675;-60
2023/06/28 00:09:41;;;;;;;3.50;3.30;;;20.20;95.90;;;;;;5032727;28;20421;-60
2023/06/28 00:12:07;;;;;;;6.53;4.10;;;20.20;96.10;;;;;;5042760;28;21112;-60
2023/06/28 00:14:33;;;;;;;3.93;3.73;;;20.20;96.30;;;;;;5047624;28;20174;-60
2023/06/28 00:16:59;;;;;;;3.80;3.60;;;20.20;96.60;;;;;;5031366;28;20459;-60
2023/06/28 00:19:28;;;;;;;3.77;3.57;;;20.20;96.90;;;;;;5044770;28;20170;-60
2023/06/28 00:21:55;;;;;;;3.83;3.50;;;20.20;97.30;;;;;;5047566;28;20701;-60
2023/06/28 00:24:21;;;;;;;3.43;3.27;;;20.10;97.00;;;;;;5032877;28;20483;-60
2023/06/28 00:26:47;;;;;;;3.70;3.40;;;20.10;96.90;;;;;;5031694;28;20494;-60
2023/06/28 00:29:13;;;;;;;3.90;3.60;;;20.10;97.00;;;;;;5033257;28;20433;-60
2023/06/28 00:31:39;;;;;;;3.80;3.57;;;20.10;97.10;;;;;;5051956;28;20749;-60
2023/06/28 00:34:05;;;;;;;4.13;3.87;;;20.00;97.30;;;;;;5041152;28;20288;-60
2023/06/28 00:36:30;;;;;;;4.53;4.23;;;20.00;97.90;;;;;;5032019;28;20215;-60
2023/06/28 00:38:56;;;;;;;3.93;3.63;;;20.00;97.90;;;;;;5034507;28;20220;-60
2023/06/28 00:41:22;;;;;;;4.97;3.90;;;20.00;97.20;;;;;;5036735;28;20174;-60
2023/06/28 00:43:48;;;;;;;4.33;4.03;;;20.00;97.20;;;;;;5036194;28;20610;-60
2023/06/28 00:46:14;;;;;;;4.20;3.90;;;20.00;97.60;;;;;;5034548;28;20182;-60
2023/06/28 00:48:40;;;;;;;3.60;3.30;;;19.90;97.80;;;;;;5035602;28;20423;-60
2023/06/28 00:51:06;;;;;;;4.23;3.93;;;19.90;98.20;;;;;;5034930;28;20554;-60
2023/06/28 00:53:32;;;;;;;3.90;3.60;;;19.90;98.30;;;;;;5041429;28;20470;-60
2023/06/28 00:55:59;;;;;;;5.13;3.97;;;19.90;97.80;;;;;;5028987;28;20440;-60
2023/06/28 00:58:25;;;;;;;4.00;3.80;;;19.80;98.30;;;;;;5035610;28;20537;-60
2023/06/28 01:00:52;;;;;;;4.30;4.00;;;19.80;98.60;;;;;;5054412;28;20784;-60
2023/06/28 01:03:18;;;;;;;4.10;3.80;;;19.80;98.70;;;;;;5048504;28;20511;-60
2023/06/28 01:05:52;;;;;;;4.90;3.70;;;19.80;98.90;;;;;;5035408;28;20413;-60
2023/06/28 01:08:18;;;;;;;4.50;4.10;;;19.80;98.70;;;;;;5035007;28;20471;-60
2023/06/28 01:10:45;;;;;;;4.07;3.77;;;19.80;99.00;;;;;;5038562;28;20420;-60
2023/06/28 01:13:11;;;;;;;4.03;3.83;;;19.80;98.70;;;;;;5054260;28;20411;-60
2023/06/28 01:15:37;;;;;;;4.33;3.80;;;19.70;98.60;;;;;;5043771;28;20456;-61
2023/06/28 01:18:03;;;;;;;4.93;3.50;;;19.70;98.50;;;;;;5034428;28;20891;-60
2023/06/28 01:20:31;;;;;;;4.63;4.33;;;19.70;98.20;;;;;;5051364;28;20518;-61
2023/06/28 01:22:58;;;;;;;4.50;4.00;;;19.70;98.70;;;;;;5044995;28;20467;-60
2023/06/28 01:25:24;;;;;;;4.23;3.90;;;19.70;98.00;;;;;;5054136;28;20475;-60
2023/06/28 01:27:51;;;;;;;4.17;3.77;;;19.70;97.90;;;;;;5054933;28;20521;-60
2023/06/28 01:30:17;;;;;;;3.90;3.70;;;19.70;98.00;;;;;;5040358;28;20416;-60
2023/06/28 01:32:43;;;;;;;4.00;3.70;;;19.70;98.00;;;;;;5035142;28;20429;-60
2023/06/28 01:35:10;;;;;;;4.30;3.77;;;19.60;98.50;;;;;;5034123;28;20404;-59
2023/06/28 01:37:39;;;;;;;4.70;4.40;;;19.60;99.20;;;;;;5046297;28;20482;-60
2023/06/28 01:40:06;;;;;;;4.10;3.80;;;19.60;99.30;;;;;;5048047;28;20453;-60
2023/06/28 01:42:34;;;;;;;4.20;3.90;;;19.60;99.30;;;;;;5035046;28;20409;-60
2023/06/28 01:45:00;;;;;;;3.57;3.40;;;19.60;99.30;;;;;;5033906;28;20445;-60
2023/06/28 01:47:26;;;;;;;4.20;3.87;;;19.60;99.90;;;;;;5036029;28;20856;-60
2023/06/28 01:49:52;;;;;;;4.70;4.30;;;19.60;99.90;;;;;;5033333;28;20174;-60
2023/06/28 01:52:18;;;;;;;4.10;3.90;;;19.50;99.80;;;;;;5034379;28;20178;-60
2023/06/28 01:54:43;;;;;;;4.57;4.27;;;19.50;99.60;;;;;;5046201;28;20174;-60
2023/06/28 01:57:09;;;;;;;4.30;4.00;;;19.50;99.30;;;;;;5033545;28;20221;-60
2023/06/28 01:59:35;;;;;;;4.60;4.20;;;19.40;99.60;;;;;;5034454;28;20173;-60
2023/06/28 02:02:01;;;;;;;6.67;4.80;;;19.40;99.60;;;;;;5033218;28;20174;-60
2023/06/28 02:04:27;;;;;;;4.83;4.37;;;19.40;99.60;;;;;;5034762;28;20170;-60
2023/06/28 02:06:52;;;;;;;4.57;4.33;;;19.30;99.90;;;;;;5048703;28;20200;-61
2023/06/28 02:09:18;;;;;;;4.40;4.07;;;19.30;99.90;;;;;;5031470;28;20440;-61
2023/06/28 02:11:44;;;;;;;5.23;4.73;;;19.30;99.90;;;;;;5033898;28;20182;-61
2023/06/28 02:14:10;;;;;;;4.00;3.80;;;19.30;99.80;;;;;;5033789;28;20189;-61
2023/06/28 02:16:35;;;;;;;4.63;4.17;;;19.20;99.70;;;;;;5034093;28;20189;-61
2023/06/28 02:19:02;;;;;;;5.27;4.87;;;19.20;99.60;;;;;;5041155;28;20174;-60
2023/06/28 02:21:27;;;;;;;4.80;4.50;;;19.20;99.70;;;;;;5041719;28;20178;-62
2023/06/28 02:23:53;;;;;;;4.63;4.30;;;19.20;99.90;;;;;;5043887;28;20436;-59
2023/06/28 02:26:19;;;;;;;4.90;4.60;;;19.10;99.90;;;;;;5033411;28;20174;-60
2023/06/28 02:28:45;;;;;;;4.70;4.40;;;19.10;99.90;;;;;;5050738;28;20177;-59
2023/06/28 02:31:10;;;;;;;5.60;5.00;;;19.10;99.90;;;;;;5035293;28;20252;-59
2023/06/28 02:33:36;;;;;;;4.50;4.20;;;19.10;99.90;;;;;;5053870;28;20516;-59
2023/06/28 02:36:02;;;;;;;5.00;4.50;;;19.10;99.90;;;;;;5052983;28;20161;-59
2023/06/28 02:38:28;;;;;;;4.63;4.33;;;19.00;99.90;;;;;;5034157;28;20189;-59
2023/06/28 02:40:54;;;;;;;4.97;4.53;;;19.00;99.90;;;;;;5033674;28;20414;-60
2023/06/28 02:43:19;;;;;;;5.07;4.57;;;19.00;99.90;;;;;;5015077;28;20921;-60
2023/06/28 02:45:45;;;;;;;5.10;4.70;;;18.90;99.90;;;;;;5033407;28;20167;-60
2023/06/28 02:48:11;;;;;;;4.80;4.50;;;18.90;99.90;;;;;;5033433;28;20233;-60
2023/06/28 02:50:36;;;;;;;5.00;4.60;;;18.80;99.90;;;;;;5053599;28;20178;-60
2023/06/28 02:53:02;;;;;;;4.70;4.30;;;18.80;99.90;;;;;;5034246;28;20615;-60
2023/06/28 02:55:28;;;;;;;5.10;4.57;;;18.80;99.90;;;;;;5033578;28;20170;-60
2023/06/28 02:57:54;;;;;;;5.50;5.00;;;18.80;99.90;;;;;;5033420;28;20401;-60
2023/06/28 03:00:20;;;;;;;5.23;4.83;;;18.80;99.90;;;;;;5045718;28;20234;-60
2023/06/28 03:02:45;;;;;;;5.67;5.20;;;18.70;99.90;;;;;;5049741;28;20258;-60
2023/06/28 03:05:11;;;;;;;5.07;4.73;;;18.70;99.90;;;;;;5049856;28;20166;-60
2023/06/28 03:07:37;;;;;;;5.20;4.80;;;18.80;99.90;;;;;;5044050;28;20194;-60
2023/06/28 03:10:03;;;;;;;5.80;4.87;;;18.70;99.90;;;;;;5031948;28;20174;-59
2023/06/28 03:12:29;;;;;;;5.17;4.77;;;18.70;99.90;;;;;;5032975;28;20189;-60
2023/06/28 03:14:56;;;;;;;4.90;4.47;;;18.70;99.90;;;;;;5033129;28;20424;-60
2023/06/28 03:17:22;;;;;;;4.77;4.47;;;18.70;99.90;;;;;;5031909;28;20886;-59
2023/06/28 03:19:48;;;;;;;4.87;4.47;;;18.70;99.90;;;;;;5046888;28;20430;-60
2023/06/28 03:22:14;;;;;;;6.20;4.90;;;18.70;99.90;;;;;;5049952;28;20167;-60
2023/06/28 03:24:40;;;;;;;5.77;5.17;;;18.70;99.90;;;;;;5042484;28;20449;-60
2023/06/28 03:27:07;;;;;;;5.20;4.80;;;18.70;99.90;;;;;;5035743;28;20456;-59
2023/06/28 03:29:33;;;;;;;5.07;4.67;;;18.70;99.90;;;;;;5033191;28;20166;-60
2023/06/28 03:31:59;;;;;;;6.10;5.60;;;18.70;99.90;;;;;;5052352;28;20407;-59
2023/06/28 03:34:24;;;;;;;6.37;5.80;;;18.60;99.90;;;;;;5036370;28;20170;-59
2023/06/28 03:36:50;;;;;;;8.97;6.07;;;18.40;99.90;;;;;;5032539;28;20209;-59
2023/06/28 03:39:18;;;;;;;5.33;5.03;;;18.30;99.90;;;;;;5027349;28;20628;-59
2023/06/28 03:41:43;;;;;;;5.37;5.00;;;18.30;99.90;;;;;;5051345;28;20178;-59
2023/06/28 03:44:09;;;;;;;6.10;5.70;;;18.40;99.90;;;;;;5051487;28;20948;-60
2023/06/28 03:46:35;;;;;;;6.30;5.80;;;18.40;99.90;;;;;;5052850;28;20201;-59
2023/06/28 03:49:01;;;;;;;5.77;5.27;;;18.50;99.90;;;;;;5060388;28;20180;-59
2023/06/28 03:51:27;;;;;;;5.57;5.27;;;18.50;99.90;;;;;;5067906;28;20264;-59
2023/06/28 03:53:52;;;;;;;5.13;4.83;;;18.60;99.90;;;;;;5052203;28;20991;-59
2023/06/28 03:56:18;;;;;;;5.03;4.60;;;18.60;99.90;;;;;;5051417;28;20177;-59
2023/06/28 03:58:44;;;;;;;7.40;6.30;;;18.60;99.90;;;;;;5051798;28;20189;-60
2023/06/28 04:01:09;;;;;;;6.00;5.60;;;18.60;99.90;;;;;;5051572;28;20237;-59
2023/06/28 04:03:35;;;;;;;5.40;5.00;;;18.70;99.90;;;;;;5052023;28;20181;-60
2023/06/28 04:06:01;;;;;;;6.27;5.17;;;18.70;99.90;;;;;;5051984;28;20174;-59
2023/06/28 04:08:27;;;;;;;5.13;4.83;;;18.70;99.90;;;;;;5051344;28;20695;-59
2023/06/28 04:10:54;;;;;;;5.60;5.10;;;18.60;99.90;;;;;;5055596;28;20656;-59
2023/06/28 04:13:20;;;;;;;5.90;5.30;;;18.60;99.90;;;;;;5070719;28;20169;-59
2023/06/28 04:15:45;;;;;;;6.80;6.20;;;18.60;99.90;;;;;;5066117;28;20404;-59
2023/06/28 04:18:11;;;;;;;6.53;5.90;;;18.70;99.90;;;;;;5051422;28;20169;-59
2023/06/28 04:20:37;;;;;;;7.23;6.40;;;18.70;99.90;;;;;;5053261;28;20218;-60
2023/06/28 04:23:03;;;;;;;7.10;6.50;;;18.60;99.90;;;;;;5052003;28;20555;-59
2023/06/28 04:25:28;;;;;;;6.17;5.67;;;18.70;99.90;;;;;;5051500;28;20181;-59
2023/06/28 04:27:54;;;;;;;6.17;5.60;;;18.70;99.90;;;;;;5055583;28;20246;-60
2023/06/28 04:30:20;;;;;;;6.33;5.83;;;18.70;99.90;;;;;;5069592;28;20173;-60
2023/06/28 04:32:45;;;;;;;9.50;8.57;;;18.80;99.90;;;;;;5071748;28;20227;-59
2023/06/28 04:35:13;;;;;;;6.03;4.90;;;18.80;99.90;;;;;;5064357;28;20178;-59
2023/06/28 04:37:40;;;;;;;6.53;5.33;;;18.80;99.90;;;;;;5051680;28;20169;-59
2023/06/28 04:40:07;;;;;;;5.50;5.00;;;18.90;99.90;;;;;;5035645;28;20948;-59
2023/06/28 04:42:34;;;;;;;8.80;7.97;;;18.90;99.90;;;;;;5045138;28;20903;-59
2023/06/28 04:45:00;;;;;;;8.50;6.53;;;18.90;99.90;;;;;;5033611;28;20451;-60
2023/06/28 04:47:27;;;;;;;7.10;6.40;;;18.90;99.90;;;;;;5050516;28;20448;-59
2023/06/28 04:49:54;;;;;;;6.40;5.90;;;19.00;99.90;;;;;;5041787;28;20177;-60
2023/06/28 04:52:21;;;;;;;5.50;5.00;;;19.00;99.90;;;;;;5031026;28;20409;-59
2023/06/28 04:54:48;;;;;;;4.60;4.23;;;19.00;99.90;;;;;;5031741;28;20448;-60
2023/06/28 04:57:20;;;;;;;7.97;4.73;;;19.00;99.90;;;;;;5031909;28;20420;-59
2023/06/28 04:59:45;;;;;;;4.67;4.27;;;19.10;99.90;;;;;;5031656;28;20404;-59
2023/06/28 05:02:11;;;;;;;5.50;5.07;;;19.10;99.90;;;;;;5030919;28;20421;-59
2023/06/28 05:04:37;;;;;;;6.00;4.20;;;19.10;99.90;;;;;;5038996;28;20416;-59
2023/06/28 05:07:05;;;;;;;5.40;4.90;;;19.10;99.90;;;;;;5051781;28;20605;-59
2023/06/28 05:09:32;;;;;;;5.13;4.90;;;19.10;99.90;;;;;;5049100;28;20520;-59
2023/06/28 05:11:58;;;;;;;5.60;5.20;;;19.10;99.90;;;;;;5045394;28;20431;-60
2023/06/28 05:14:25;;;;;;;5.00;4.70;;;19.10;99.90;;;;;;5030882;28;21194;-60
2023/06/28 05:16:51;;;;;;;5.63;5.13;;;19.10;99.90;;;;;;5043310;28;20801;-60
2023/06/28 05:19:17;;;;;;;5.70;4.70;;;19.10;99.90;;;;;;5041874;28;20493;-60
2023/06/28 05:21:43;;;;;;;5.73;5.03;;;19.10;99.90;;;;;;5031191;28;20425;-60
2023/06/28 05:24:09;;;;;;;6.10;5.30;;;19.10;99.90;;;;;;5043231;28;20473;-60
2023/06/28 05:26:34;;;;;;;6.20;5.70;;;19.20;99.90;;;;;;5034577;28;20654;-60
2023/06/28 05:29:00;;;;;;;6.87;6.27;;;19.10;99.90;;;;;;5045173;28;20190;-60
2023/06/28 05:31:26;;;;;;;9.03;6.60;;;19.10;99.90;;;;;;5044221;28;20174;-60
2023/06/28 05:33:51;;;;;;;7.17;6.13;;;19.10;99.90;;;;;;5039800;28;20212;-60
2023/06/28 05:36:20;;;;;;;6.10;5.80;;;19.10;99.90;;;;;;5052773;28;20169;-60
2023/06/28 05:38:46;;;;;;;5.17;4.87;;;19.10;99.90;;;;;;5034777;28;20261;-60
2023/06/28 05:41:16;;;;;;;5.90;5.40;;;19.10;99.90;;;;;;5041659;28;20452;-60
2023/06/28 05:43:43;;;;;;;6.93;6.43;;;19.20;99.90;;;;;;5039590;28;20567;-60
2023/06/28 05:46:09;;;;;;;5.43;4.93;;;19.20;99.90;;;;;;5049774;28;20934;-60
2023/06/28 05:48:34;;;;;;;7.03;5.60;;;19.30;99.90;;;;;;5048121;28;20465;-60
2023/06/28 05:51:00;;;;;;;6.37;5.77;;;19.40;99.90;;;;;;5034740;28;20177;-60
2023/06/28 05:53:29;;;;;;;5.90;5.40;;;19.50;99.90;;;;;;5034721;28;20301;-60
2023/06/28 05:55:55;;;;;;;6.43;5.83;;;19.50;99.90;;;;;;5034366;28;20251;-60
2023/06/28 05:58:21;;;;;;;7.33;6.30;;;19.40;99.90;;;;;;5037269;28;20431;-60
2023/06/28 06:00:47;;;;;;;5.73;5.23;;;19.40;99.90;;;;;;5024167;28;20413;-60
2023/06/28 06:03:13;;;;;;;6.00;5.60;;;19.50;99.90;;;;;;5032915;28;20732;-60
2023/06/28 06:05:38;;;;;;;5.57;5.17;;;19.60;99.90;;;;;;5034498;28;20401;-60
2023/06/28 06:08:05;;;;;;;6.70;6.10;;;19.60;99.90;;;;;;5035285;28;20469;-60
2023/06/28 06:10:31;;;;;;;9.53;6.03;;;19.60;99.90;;;;;;5035457;28;21167;-60
2023/06/28 06:12:57;;;;;;;6.30;5.70;;;19.70;99.90;;;;;;5054252;28;20404;-60
2023/06/28 06:15:22;;;;;;;5.80;5.40;;;19.80;99.90;;;;;;5035577;28;20872;-60
2023/06/28 06:17:50;;;;;;;7.00;6.40;;;19.80;99.90;;;;;;5054081;28;20801;-60
2023/06/28 06:20:16;;;;;;;5.33;4.90;;;19.80;99.90;;;;;;5039398;28;20178;-60
2023/06/28 06:22:42;;;;;;;7.07;5.40;;;19.80;99.90;;;;;;5034213;28;20409;-60
2023/06/28 06:25:08;;;;;;;6.73;6.10;;;19.90;99.90;;;;;;5033916;28;20415;-60
2023/06/28 06:27:34;;;;;;;7.30;5.53;;;20.00;99.90;;;;;;5033324;28;20456;-61
2023/06/28 06:30:04;;;;;;;10.83;7.00;;;20.00;99.90;;;;;;5044722;28;20448;-61
2023/06/28 06:32:29;;;;;;;5.20;4.70;;;20.20;99.90;;;;;;5033545;28;20696;-61
2023/06/28 06:34:59;;;;;;;4.80;4.40;;;20.50;99.90;;;;;;5042569;28;20428;-61
2023/06/28 06:37:25;;;;;;;5.97;5.43;;;20.80;99.90;;;;;;5039081;28;20201;-61
2023/06/28 06:39:51;;;;;;;5.37;4.90;;;21.10;99.80;;;;;;5039333;28;20460;-62
2023/06/28 06:42:16;;;;;;;5.77;5.10;;;21.30;99.00;;;;;;5041707;28;20260;-61
2023/06/28 06:44:42;;;;;;;5.47;4.97;;;21.40;98.10;;;;;;5038982;28;20253;-61
2023/06/28 06:47:08;;;;;;;5.80;4.87;;;21.50;97.40;;;;;;5034099;28;20205;-62
2023/06/28 06:49:35;;;;;;;6.77;5.70;;;21.60;97.50;;;;;;5042587;28;20252;-61
2023/06/28 06:52:01;;;;;;;8.00;5.83;;;21.70;96.90;;;;;;5063825;28;20422;-61
2023/06/28 06:54:29;;;;;;;6.37;5.77;;;21.80;96.60;;;;;;5058392;28;20684;-61
2023/06/28 06:56:59;;;;;;;5.80;5.50;;;21.90;97.00;;;;;;5034325;28;20185;-61
2023/06/28 06:59:26;;;;;;;7.13;5.80;;;22.10;96.10;;;;;;5035457;28;20420;-62
2023/06/28 07:01:52;;;;;;;6.60;5.83;;;22.10;95.80;;;;;;5043902;28;20428;-61
2023/06/28 07:04:19;;;;;;;6.07;5.53;;;22.20;95.10;;;;;;5032675;28;20500;-61
2023/06/28 07:06:47;;;;;;;10.30;5.67;;;22.30;95.20;;;;;;5043362;28;20543;-61
2023/06/28 07:09:14;;;;;;;5.80;5.10;;;22.30;95.10;;;;;;5046848;28;20433;-61
2023/06/28 07:11:41;;;;;;;4.70;4.30;;;22.40;95.40;;;;;;5033168;28;20401;-61
2023/06/28 07:14:07;;;;;;;9.10;4.93;;;22.50;94.90;;;;;;5033076;28;20405;-62
2023/06/28 07:16:34;;;;;;;5.07;4.53;;;22.60;94.40;;;;;;5036318;28;20424;-61
2023/06/28 07:19:00;;;;;;;6.70;5.97;;;22.60;94.60;;;;;;5029806;28;20456;-62
2023/06/28 07:21:25;;;;;;;5.80;5.30;;;22.60;94.40;;;;;;5052116;28;20405;-61
2023/06/28 07:23:51;;;;;;;11.70;6.03;;;22.70;94.80;;;;;;5037428;28;20432;-61
2023/06/28 07:26:18;;;;;;;6.00;5.50;;;22.80;94.90;;;;;;5054432;28;20226;-61
2023/06/28 07:28:43;;;;;;;8.33;6.33;;;22.80;94.70;;;;;;5050354;28;20229;-61
2023/06/28 07:31:09;;;;;;;6.93;6.10;;;22.90;94.70;;;;;;5030284;28;20436;-61
2023/06/28 07:33:35;;;;;;;5.90;5.50;;;22.90;94.10;;;;;;5039841;28;20173;-62
2023/06/28 07:36:01;;;;;;;4.37;4.07;;;23.00;94.00;;;;;;5017682;28;20174;-61
2023/06/28 07:38:27;;;;;;;5.07;4.63;;;23.00;92.70;;;;;;5051428;28;20485;-61
2023/06/28 07:40:53;;;;;;;4.97;4.50;;;23.10;92.90;;;;;;5040664;28;20416;-62
2023/06/28 07:43:20;;;;;;;5.10;4.70;;;23.10;93.20;;;;;;5045756;28;20172;-61
2023/06/28 07:45:46;;;;;;;5.80;4.27;;;23.10;92.10;;;;;;5039202;28;20401;-62
2023/06/28 07:48:12;;;;;;;5.43;4.83;;;23.20;92.80;;;;;;5035923;28;20282;-62
2023/06/28 07:50:38;;;;;;;4.80;4.40;;;23.20;92.30;;;;;;5040671;28;20186;-62
2023/06/28 07:53:04;;;;;;;4.77;4.37;;;23.30;89.60;;;;;;5044864;28;20436;-62
2023/06/28 07:55:30;;;;;;;5.90;4.90;;;23.30;91.30;;;;;;5031014;28;20693;-61
2023/06/28 07:57:57;;;;;;;5.20;4.70;;;23.30;90.90;;;;;;5046510;28;20499;-62
2023/06/28 08:00:26;;;;;;;4.20;3.90;;;23.30;90.30;;;;;;5019658;28;20630;-61
2023/06/28 08:02:52;;;;;;;4.47;3.70;;;23.30;91.20;;;;;;5028859;28;20436;-62
2023/06/28 08:05:19;;;;;;;4.10;3.80;;;23.40;90.10;;;;;;5033056;28;20447;-61
2023/06/28 08:07:46;;;;;;;5.63;5.20;;;23.30;91.00;;;;;;5021499;28;20209;-61
2023/06/28 08:10:12;;;;;;;6.10;5.50;;;23.40;92.70;;;;;;5032258;28;20496;-61
2023/06/28 08:12:37;;;;;;;5.30;4.90;;;23.50;92.40;;;;;;5032755;28;21059;-61
2023/06/28 08:15:04;;;;;;;5.40;4.93;;;23.50;91.30;;;;;;5045867;28;20478;-61
2023/06/28 08:17:29;;;;;;;5.73;5.20;;;23.60;91.50;;;;;;5029532;28;20506;-61
2023/06/28 08:19:55;;;;;;;6.60;4.50;;;23.70;91.70;;;;;;5032165;28;20393;-61
2023/06/28 08:22:21;;;;;;;4.50;4.10;;;23.70;90.90;;;;;;5030452;28;20166;-61
2023/06/28 08:24:48;;;;;;;4.87;4.47;;;23.80;91.10;;;;;;5046650;28;20303;-61
2023/06/28 08:27:14;;;;;;;4.50;4.20;;;23.80;90.80;;;;;;5044362;28;20878;-61
2023/06/28 08:29:40;;;;;;;6.03;4.43;;;23.90;89.70;;;;;;5031720;28;20449;-61
2023/06/28 08:32:06;;;;;;;4.70;4.17;;;23.90;90.10;;;;;;5032013;28;20424;-61
2023/06/28 08:34:31;;;;;;;4.80;3.17;;;23.90;90.50;;;;;;5044203;28;20193;-61
2023/06/28 08:36:57;;;;;;;4.33;3.93;;;24.00;90.80;;;;;;5046623;28;20420;-61
2023/06/28 08:39:23;;;;;;;6.60;3.53;;;24.00;90.40;;;;;;5051009;28;20305;-61
2023/06/28 08:41:52;;;;;;;4.50;3.63;;;24.00;90.80;;;;;;5050060;28;20205;-61
2023/06/28 08:44:20;;;;;;;4.03;3.63;;;24.00;90.10;;;;;;5036653;28;20178;-61
2023/06/28 08:46:48;;;;;;;4.47;3.87;;;24.00;90.30;;;;;;5051379;28;20444;-61
2023/06/28 08:49:15;;;;;;;4.53;3.70;;;24.10;88.80;;;;;;5042710;28;20424;-61
2023/06/28 08:51:42;;;;;;;5.50;4.37;;;24.10;89.50;;;;;;5035954;28;20459;-61
2023/06/28 08:54:10;;;;;;;4.20;3.90;;;24.10;89.80;;;;;;5036910;28;20477;-61
2023/06/28 08:56:36;;;;;;;3.70;2.97;;;24.00;89.00;;;;;;5030461;28;20807;-61
2023/06/28 08:59:02;;;;;;;3.50;3.20;;;24.00;88.70;;;;;;5034051;28;20421;-61
2023/06/28 09:01:29;;;;;;;3.53;3.23;;;24.00;89.20;;;;;;5037306;28;20173;-61
2023/06/28 09:03:56;;;;;;;4.03;3.00;;;24.00;87.00;;;;;;5054269;28;20420;-61
2023/06/28 09:06:22;;;;;;;4.37;3.10;;;23.90;88.10;;;;;;5039123;28;20417;-61
2023/06/28 09:08:49;;;;;;;3.53;2.83;;;24.00;88.30;;;;;;5029912;28;20429;-61
2023/06/28 09:11:16;;;;;;;3.50;3.20;;;24.00;90.30;;;;;;5035414;28;20416;-61
2023/06/28 09:13:43;;;;;;;4.30;3.50;;;24.10;90.40;;;;;;5045863;28;20477;-61
2023/06/28 09:16:09;;;;;;;2.97;2.77;;;24.10;90.30;;;;;;5044346;28;20426;-61
2023/06/28 09:18:35;;;;;;;3.73;3.43;;;24.20;89.30;;;;;;5047147;28;20433;-61
2023/06/28 09:21:01;;;;;;;3.33;3.03;;;24.20;89.30;;;;;;5053357;28;20857;-61
2023/06/28 09:23:29;;;;;;;7.03;3.60;;;24.30;87.60;;;;;;5034470;28;20779;-61
2023/06/28 09:25:56;;;;;;;3.67;2.60;;;24.30;89.00;;;;;;5050042;28;20904;-61
2023/06/28 09:28:35;;;;;;;4.73;2.87;;;24.20;86.90;;;;;;5054192;28;20448;-62
2023/06/28 09:31:04;;;;;;;3.77;2.80;;;24.10;84.40;;;;;;5038240;28;20430;-62
2023/06/28 09:33:31;;;;;;;4.37;2.90;;;24.10;83.70;;;;;;5038939;28;20429;-61
2023/06/28 09:35:58;;;;;;;3.23;3.03;;;23.90;84.80;;;;;;5037218;28;20961;-61
2023/06/28 09:38:25;;;;;;;4.00;3.30;;;23.90;86.30;;;;;;5034902;28;20855;-64
2023/06/28 09:40:55;;;;;;;4.20;2.80;;;23.90;86.30;;;;;;5047672;28;20432;-61
2023/06/28 09:43:22;;;;;;;2.57;2.37;;;23.80;87.10;;;;;;5046143;28;20422;-62
2023/06/28 09:45:49;;;;;;;3.67;3.20;;;23.80;88.40;;;;;;5034967;28;20418;-61
2023/06/28 09:48:14;;;;;;;6.53;3.60;;;23.80;86.70;;;;;;5040003;28;20547;-62
2023/06/28 09:50:47;;;;;;;2.70;2.50;;;23.90;90.00;;;;;;5046665;28;20528;-62
2023/06/28 09:53:19;;;;;;;4.30;2.97;;;23.90;88.00;;;;;;5034967;28;20173;-61
2023/06/28 09:55:49;;;;;;;3.37;3.00;;;23.90;87.70;;;;;;5042746;28;20442;-61
2023/06/28 09:58:17;;;;;;;2.67;2.50;;;24.00;86.10;;;;;;5048698;28;20897;-61
2023/06/28 10:00:45;;;;;;;2.97;2.40;;;23.90;86.50;;;;;;5033707;28;20562;-61
2023/06/28 10:03:13;;;;;;;3.80;3.20;;;23.80;85.10;;;;;;5022962;28;20525;-61
2023/06/28 10:05:40;;;;;;;4.53;3.13;;;23.70;87.10;;;;;;5044085;28;20495;-61
2023/06/28 10:08:08;;;;;;;3.53;3.30;;;23.60;86.70;;;;;;5039297;28;20475;-61
2023/06/28 10:10:35;;;;;;;8.50;3.40;;;23.60;89.60;;;;;;5045456;28;20420;-62
2023/06/28 10:13:03;;;;;;;3.67;3.20;;;23.60;90.50;;;;;;5052751;28;20456;-62
2023/06/28 10:15:43;;;;;;;3.93;3.53;;;23.60;88.80;;;;;;5053318;28;20495;-62
2023/06/28 10:18:10;;;;;;;3.90;3.60;;;23.70;90.50;;;;;;5039155;28;20432;-61
2023/06/28 10:20:37;;;;;;;5.10;4.70;;;23.50;89.50;;;;;;5032833;28;20413;-61
2023/06/28 10:23:05;;;;;;;6.50;4.40;;;23.50;89.70;;;;;;5034117;28;20415;-61
2023/06/28 10:25:32;;;;;;;6.17;3.57;;;23.60;90.30;;;;;;5044212;28;20419;-65
2023/06/28 10:27:58;;;;;;;8.67;4.30;;;23.80;91.10;;;;;;5033381;28;20453;-62
2023/06/28 10:30:25;;;;;;;3.50;3.00;;;23.90;91.10;;;;;;5038512;28;20424;-63
2023/06/28 10:32:52;;;;;;;5.20;3.10;;;24.10;90.40;;;;;;5036585;28;20423;-63
2023/06/28 10:35:19;;;;;;;3.57;3.27;;;24.30;89.90;;;;;;5043572;28;20408;-62
2023/06/28 10:37:46;;;;;;;3.80;3.50;;;24.50;89.50;;;;;;5033714;28;21044;-62
2023/06/28 10:40:12;;;;;;;6.13;3.70;;;24.60;89.10;;;;;;5040742;28;20461;-63
2023/06/28 10:42:41;;;;;;;4.00;3.20;;;24.80;89.20;;;;;;5035462;28;20420;-62
2023/06/28 10:45:10;;;;;;;5.13;4.07;;;24.90;88.90;;;;;;5033734;28;20417;-62
2023/06/28 10:47:49;;;;;;;4.60;4.20;;;24.90;88.00;;;;;;5050683;28;20525;-62
2023/06/28 10:50:20;;;;;;;4.40;4.00;;;25.00;87.80;;;;;;5051898;28;20546;-62
2023/06/28 10:52:54;;;;;;;4.43;4.03;;;25.00;88.90;;;;;;5021332;28;20400;-62
2023/06/28 10:55:34;;;;;;;5.77;4.63;;;25.00;90.30;;;;;;5035302;28;20437;-62
2023/06/28 10:58:07;;;;;;;5.63;4.73;;;25.00;89.30;;;;;;5038956;28;20427;-62
2023/06/28 11:00:47;;;;;;;5.20;4.80;;;24.90;88.70;;;;;;5052620;28;20403;-62
2023/06/28 11:03:14;;;;;;;6.00;4.80;;;24.70;88.70;;;;;;5032107;28;20417;-62
2023/06/28 11:05:51;;;;;;;4.77;4.37;;;24.60;89.30;;;;;;5042541;28;20772;-62
2023/06/28 11:08:17;;;;;;;5.60;5.10;;;24.50;90.10;;;;;;5047143;28;20811;-62
2023/06/28 11:10:46;;;;;;;4.13;3.70;;;24.40;89.90;;;;;;5040460;28;20428;-62
2023/06/28 11:13:13;;;;;;;4.97;4.43;;;24.30;90.40;;;;;;5033332;28;20433;-62
2023/06/28 11:15:46;;;;;;;5.93;4.90;;;24.20;90.30;;;;;;5031817;28;20424;-62
2023/06/28 11:18:16;;;;;;;4.87;4.40;;;24.10;90.80;;;;;;5037651;28;20420;-62
2023/06/28 11:20:57;;;;;;;6.53;4.40;;;24.10;90.80;;;;;;5032143;28;20844;-62
2023/06/28 11:23:39;;;;;;;5.63;4.97;;;23.90;91.90;;;;;;5032557;28;20427;-62
2023/06/28 11:26:07;;;;;;;4.80;4.40;;;23.90;91.60;;;;;;5032321;28;20425;-63
2023/06/28 11:28:34;;;;;;;5.90;4.30;;;24.00;91.40;;;;;;5038885;28;20475;-62
2023/06/28 11:31:22;;;;;;;6.83;5.20;;;23.90;92.10;;;;;;5032884;28;20429;-62
2023/06/28 11:33:50;;;;;;;6.13;5.53;;;24.00;92.30;;;;;;5027795;28;20425;-62
2023/06/28 11:36:17;;;;;;;7.07;5.50;;;24.00;91.80;;;;;;5037275;28;20416;-62
2023/06/28 11:38:44;;;;;;;5.43;5.00;;;24.00;91.80;;;;;;5031613;28;20459;-61
2023/06/28 11:41:11;;;;;;;5.30;4.90;;;24.00;92.40;;;;;;5032302;28;20433;-61
2023/06/28 11:43:36;;;;;;;4.90;4.57;;;24.10;92.40;;;;;;5042882;28;20424;-61
2023/06/28 11:46:03;;;;;;;4.87;4.37;;;24.10;92.30;;;;;;5034031;28;20431;-61
2023/06/28 11:48:28;;;;;;;6.33;5.03;;;24.20;92.10;;;;;;5021277;28;20208;-61
2023/06/28 11:51:01;;;;;;;4.90;4.50;;;24.20;91.60;;;;;;5048957;28;20421;-61
2023/06/28 11:53:29;;;;;;;6.30;4.97;;;24.20;91.90;;;;;;5031697;28;20243;-62
2023/06/28 11:55:56;;;;;;;8.00;5.33;;;24.20;92.20;;;;;;5040385;28;20900;-62
2023/06/28 11:58:33;;;;;;;4.97;4.47;;;24.20;92.80;;;;;;5032483;28;20409;-63
2023/06/28 12:01:01;;;;;;;5.63;5.13;;;24.30;92.90;;;;;;5032378;28;20416;-62
2023/06/28 12:03:37;;;;;;;5.73;5.00;;;24.40;92.60;;;;;;5045664;28;20440;-63
2023/06/28 12:06:05;;;;;;;5.80;4.77;;;24.40;92.80;;;;;;5044580;28;20481;-62
2023/06/28 12:08:36;;;;;;;6.43;5.60;;;24.40;92.10;;;;;;5038776;28;20490;-64
2023/06/28 12:11:08;;;;;;;4.97;4.47;;;24.40;95.00;;;;;;5051242;28;20404;-64
2023/06/28 12:13:35;;;;;;;5.30;4.80;;;24.20;94.20;;;;;;5039417;28;20413;-64
2023/06/28 12:16:15;;;;;;;5.67;5.17;;;24.10;93.10;;;;;;5048750;28;20782;-64
2023/06/28 12:19:01;;;;;;;8.13;5.53;;;24.10;93.30;;;;;;5036134;28;20434;-62
2023/06/28 12:21:32;;;;;;;5.50;4.60;;;24.00;93.30;;;;;;5049448;28;20459;-62
2023/06/28 12:24:31;;;;;;;5.20;4.50;;;24.00;94.60;;;;;;5037383;28;20424;-62
2023/06/28 12:26:58;;;;;;;5.53;5.13;;;23.90;94.20;;;;;;4988428;28;20465;-63
2023/06/28 12:29:29;;;;;;;5.03;4.53;;;23.90;93.50;;;;;;5031416;28;20527;-62
2023/06/28 12:31:57;;;;;;;5.20;4.70;;;23.90;95.70;;;;;;5031081;28;20417;-62
2023/06/28 12:34:25;;;;;;;5.57;4.37;;;23.90;95.50;;;;;;5034484;28;20421;-62
2023/06/28 12:37:03;;;;;;;6.70;4.90;;;23.90;94.00;;;;;;5046861;28;20462;-63
2023/06/28 12:39:32;;;;;;;7.67;5.37;;;23.90;92.90;;;;;;5041279;28;20607;-62
2023/06/28 12:42:17;;;;;;;6.53;5.93;;;23.90;92.60;;;;;;5040731;28;20427;-62
2023/06/28 12:44:58;;;;;;;8.93;5.30;;;23.90;92.30;;;;;;5045674;28;20443;-62
2023/06/28 12:47:31;;;;;;;6.57;5.97;;;23.80;93.00;;;;;;5018966;28;20916;-62